sensor_id;sensor_type;location;lat;lon;timestamp;temperature;humidity
36442;DHT22;73131;50.820;16.274;2024-02-14T00:01:54;2.10;99.90
36442;DHT22;73131;50.820;16.274;2024-02-14T00:04:56;2.10;99.90
36442;DHT22;73131;50.820;16.274;2024-02-14T00:07:57;2.10;99.90
36442;DHT22;73131;50.820;16.274;2024-02-14T00:10:59;2.10;99.90
36442;DHT22;73131;50.820;16.274;2024-02-14T00:14:01;2.10;99.90
36442;DHT22;73131;50.820;16.274;2024-02-14T00:17:02;2.10;99.90
36442;DHT22;73131;50.820;16.274;2024-02-14T00:20:04;2.10;99.90
36442;DHT22;73131;50.820;16.274;2024-02-14T00:23:05;2.10;99.90
36442;DHT22;73131;50.820;16.274;2024-02-14T00:26:06;2.00;99.90
36442;DHT22;73131;50.820;16.274;2024-02-14T00:29:10;2.00;99.90
36442;DHT22;73131;50.820;16.274;2024-02-14T00:32:12;2.10;99.90
36442;DHT22;73131;50.820;16.274;2024-02-14T00:35:14;2.10;99.90
36442;DHT22;73131;50.820;16.274;2024-02-14T00:38:15;2.10;99.90
36442;DHT22;73131;50.820;16.274;2024-02-14T00:41:16;2.20;99.90
36442;DHT22;73131;50.820;16.274;2024-02-14T00:44:19;2.20;99.90
36442;DHT22;73131;50.820;16.274;2024-02-14T00:47:20;2.20;99.90
36442;DHT22;73131;50.820;16.274;2024-02-14T00:50:23;2.30;99.90
36442;DHT22;73131;50.820;16.274;2024-02-14T00:53:27;2.30;99.90
36442;DHT22;73131;50.820;16.274;2024-02-14T00:56:28;2.30;99.90
36442;DHT22;73131;50.820;16.274;2024-02-14T00:59:29;2.20;99.90
36442;DHT22;73131;50.820;16.274;2024-02-14T01:02:32;2.20;99.90
36442;DHT22;73131;50.820;16.274;2024-02-14T01:05:36;2.20;99.90
36442;DHT22;73131;50.820;16.274;2024-02-14T01:08:37;2.10;99.90
36442;DHT22;73131;50.820;16.274;2024-02-14T01:11:38;2.10;99.90
36442;DHT22;73131;50.820;16.274;2024-02-14T01:14:39;2.00;99.90
36442;DHT22;73131;50.820;16.274;2024-02-14T01:17:40;2.00;99.90
36442;DHT22;73131;50.820;16.274;2024-02-14T01:20:41;2.00;99.90
36442;DHT22;73131;50.820;16.274;2024-02-14T01:23:43;2.00;99.90
36442;DHT22;73131;50.820;16.274;2024-02-14T01:26:43;2.00;99.90
36442;DHT22;73131;50.820;16.274;2024-02-14T01:29:45;2.10;99.90
36442;DHT22;73131;50.820;16.274;2024-02-14T01:32:46;2.10;99.90
36442;DHT22;73131;50.820;16.274;2024-02-14T01:35:47;2.10;99.90
36442;DHT22;73131;50.820;16.274;2024-02-14T01:38:48;2.10;99.90
36442;DHT22;73131;50.820;16.274;2024-02-14T01:41:52;2.10;99.90
36442;DHT22;73131;50.820;16.274;2024-02-14T01:44:55;2.10;99.90
36442;DHT22;73131;50.820;16.274;2024-02-14T01:47:57;2.10;99.90
36442;DHT22;73131;50.820;16.274;2024-02-14T01:51:01;2.10;99.90
36442;DHT22;73131;50.820;16.274;2024-02-14T01:54:03;2.10;99.90
36442;DHT22;73131;50.820;16.274;2024-02-14T01:57:05;2.10;99.90
36442;DHT22;73131;50.820;16.274;2024-02-14T02:00:07;2.10;99.90
36442;DHT22;73131;50.820;16.274;2024-02-14T02:03:18;2.00;99.90
36442;DHT22;73131;50.820;16.274;2024-02-14T02:06:21;2.00;99.90
36442;DHT22;73131;50.820;16.274;2024-02-14T02:09:22;1.90;99.90
36442;DHT22;73131;50.820;16.274;2024-02-14T02:12:24;1.90;99.90
36442;DHT22;73131;50.820;16.274;2024-02-14T02:15:30;1.80;99.90
36442;DHT22;73131;50.820;16.274;2024-02-14T02:18:32;1.80;99.90
36442;DHT22;73131;50.820;16.274;2024-02-14T02:21:33;1.80;99.90
36442;DHT22;73131;50.820;16.274;2024-02-14T02:24:36;1.80;99.90
36442;DHT22;73131;50.820;16.274;2024-02-14T02:27:39;1.80;99.90
36442;DHT22;73131;50.820;16.274;2024-02-14T02:30:40;1.80;99.90
36442;DHT22;73131;50.820;16.274;2024-02-14T02:33:41;1.90;99.90
36442;DHT22;73131;50.820;16.274;2024-02-14T02:36:46;1.90;99.90
36442;DHT22;73131;50.820;16.274;2024-02-14T02:39:51;2.00;99.90
36442;DHT22;73131;50.820;16.274;2024-02-14T02:42:57;2.00;99.90
36442;DHT22;73131;50.820;16.274;2024-02-14T02:46:00;1.90;99.90
36442;DHT22;73131;50.820;16.274;2024-02-14T02:49:01;2.00;99.90
36442;DHT22;73131;50.820;16.274;2024-02-14T02:52:05;2.00;99.90
36442;DHT22;73131;50.820;16.274;2024-02-14T02:55:06;1.90;99.90
36442;DHT22;73131;50.820;16.274;2024-02-14T02:58:07;1.90;99.90
36442;DHT22;73131;50.820;16.274;2024-02-14T03:01:09;1.90;99.90
36442;DHT22;73131;50.820;16.274;2024-02-14T03:04:10;1.90;99.90
36442;DHT22;73131;50.820;16.274;2024-02-14T03:07:11;1.90;99.90
36442;DHT22;73131;50.820;16.274;2024-02-14T03:10:13;1.90;99.90
36442;DHT22;73131;50.820;16.274;2024-02-14T03:13:15;1.90;99.90
36442;DHT22;73131;50.820;16.274;2024-02-14T03:16:17;1.90;99.90
36442;DHT22;73131;50.820;16.274;2024-02-14T03:19:19;1.90;99.90
36442;DHT22;73131;50.820;16.274;2024-02-14T03:22:20;1.90;99.90
36442;DHT22;73131;50.820;16.274;2024-02-14T03:25:21;1.80;99.90
36442;DHT22;73131;50.820;16.274;2024-02-14T03:28:26;1.80;99.90
36442;DHT22;73131;50.820;16.274;2024-02-14T03:31:28;1.80;99.90
36442;DHT22;73131;50.820;16.274;2024-02-14T03:34:29;1.80;99.90
36442;DHT22;73131;50.820;16.274;2024-02-14T03:37:32;1.80;99.90
36442;DHT22;73131;50.820;16.274;2024-02-14T03:40:35;1.80;99.90
36442;DHT22;73131;50.820;16.274;2024-02-14T03:43:38;1.80;99.90
36442;DHT22;73131;50.820;16.274;2024-02-14T03:46:39;1.80;99.90
36442;DHT22;73131;50.820;16.274;2024-02-14T03:49:41;1.80;99.90
36442;DHT22;73131;50.820;16.274;2024-02-14T03:52:42;1.80;99.90
36442;DHT22;73131;50.820;16.274;2024-02-14T03:55:46;1.80;99.90
36442;DHT22;73131;50.820;16.274;2024-02-14T03:58:47;1.80;99.90
36442;DHT22;73131;50.820;16.274;2024-02-14T04:01:48;1.80;99.90
36442;DHT22;73131;50.820;16.274;2024-02-14T04:04:50;1.80;99.90
36442;DHT22;73131;50.820;16.274;2024-02-14T04:07:51;1.80;99.90
36442;DHT22;73131;50.820;16.274;2024-02-14T04:10:53;1.80;99.90
36442;DHT22;73131;50.820;16.274;2024-02-14T04:13:58;1.80;99.90
36442;DHT22;73131;50.820;16.274;2024-02-14T04:17:01;1.80;99.90
36442;DHT22;73131;50.820;16.274;2024-02-14T04:20:02;1.80;99.90
36442;DHT22;73131;50.820;16.274;2024-02-14T04:23:07;1.80;99.90
36442;DHT22;73131;50.820;16.274;2024-02-14T04:26:08;1.90;99.90
36442;DHT22;73131;50.820;16.274;2024-02-14T04:29:11;1.90;99.90
36442;DHT22;73131;50.820;16.274;2024-02-14T04:32:13;1.90;99.90
36442;DHT22;73131;50.820;16.274;2024-02-14T04:35:14;2.00;99.90
36442;DHT22;73131;50.820;16.274;2024-02-14T04:38:18;2.00;99.90
36442;DHT22;73131;50.820;16.274;2024-02-14T04:41:20;2.00;99.90
36442;DHT22;73131;50.820;16.274;2024-02-14T04:44:22;2.10;99.90
36442;DHT22;73131;50.820;16.274;2024-02-14T04:47:25;2.10;99.90
36442;DHT22;73131;50.820;16.274;2024-02-14T04:50:29;2.10;99.90
36442;DHT22;73131;50.820;16.274;2024-02-14T04:53:31;2.10;99.90
36442;DHT22;73131;50.820;16.274;2024-02-14T04:56:33;2.20;99.90
36442;DHT22;73131;50.820;16.274;2024-02-14T04:59:34;2.20;99.90
36442;DHT22;73131;50.820;16.274;2024-02-14T05:02:35;2.20;99.90
36442;DHT22;73131;50.820;16.274;2024-02-14T05:05:37;2.20;99.90
36442;DHT22;73131;50.820;16.274;2024-02-14T05:08:39;2.20;99.90
36442;DHT22;73131;50.820;16.274;2024-02-14T05:11:39;2.30;99.90
36442;DHT22;73131;50.820;16.274;2024-02-14T05:14:41;2.30;99.90
36442;DHT22;73131;50.820;16.274;2024-02-14T05:17:42;2.40;99.90
36442;DHT22;73131;50.820;16.274;2024-02-14T05:20:46;2.50;99.90
36442;DHT22;73131;50.820;16.274;2024-02-14T05:23:48;2.60;99.90
36442;DHT22;73131;50.820;16.274;2024-02-14T05:26:49;2.50;99.90
36442;DHT22;73131;50.820;16.274;2024-02-14T05:29:50;2.60;99.90
36442;DHT22;73131;50.820;16.274;2024-02-14T05:32:51;2.60;99.90
36442;DHT22;73131;50.820;16.274;2024-02-14T05:35:55;2.60;99.90
36442;DHT22;73131;50.820;16.274;2024-02-14T05:38:56;2.60;99.90
36442;DHT22;73131;50.820;16.274;2024-02-14T05:41:59;2.70;99.90
36442;DHT22;73131;50.820;16.274;2024-02-14T05:45:01;2.60;99.90
36442;DHT22;73131;50.820;16.274;2024-02-14T05:48:04;2.60;99.90
36442;DHT22;73131;50.820;16.274;2024-02-14T05:51:05;2.70;99.90
36442;DHT22;73131;50.820;16.274;2024-02-14T05:54:09;2.70;99.90
36442;DHT22;73131;50.820;16.274;2024-02-14T05:57:10;2.70;99.90
36442;DHT22;73131;50.820;16.274;2024-02-14T06:00:11;2.60;99.90
36442;DHT22;73131;50.820;16.274;2024-02-14T06:03:13;2.50;99.90
36442;DHT22;73131;50.820;16.274;2024-02-14T06:06:14;2.60;99.90
36442;DHT22;73131;50.820;16.274;2024-02-14T06:09:16;2.50;99.90
36442;DHT22;73131;50.820;16.274;2024-02-14T06:12:19;2.50;99.90
36442;DHT22;73131;50.820;16.274;2024-02-14T06:15:22;2.50;99.90
36442;DHT22;73131;50.820;16.274;2024-02-14T06:18:23;2.40;99.90
36442;DHT22;73131;50.820;16.274;2024-02-14T06:21:29;2.40;99.90
36442;DHT22;73131;50.820;16.274;2024-02-14T06:24:30;2.50;99.90
36442;DHT22;73131;50.820;16.274;2024-02-14T06:27:31;2.60;99.90
36442;DHT22;73131;50.820;16.274;2024-02-14T06:30:32;2.60;99.90
36442;DHT22;73131;50.820;16.274;2024-02-14T06:33:34;2.70;99.90
36442;DHT22;73131;50.820;16.274;2024-02-14T06:36:37;2.90;99.90
36442;DHT22;73131;50.820;16.274;2024-02-14T06:39:38;3.10;99.90
36442;DHT22;73131;50.820;16.274;2024-02-14T06:42:39;3.40;99.90
36442;DHT22;73131;50.820;16.274;2024-02-14T06:45:41;3.80;99.90
36442;DHT22;73131;50.820;16.274;2024-02-14T06:48:42;4.40;99.90
36442;DHT22;73131;50.820;16.274;2024-02-14T06:51:43;4.60;99.90
36442;DHT22;73131;50.820;16.274;2024-02-14T06:54:49;4.60;99.90
36442;DHT22;73131;50.820;16.274;2024-02-14T06:57:53;4.80;99.90
36442;DHT22;73131;50.820;16.274;2024-02-14T07:00:54;4.90;99.90
36442;DHT22;73131;50.820;16.274;2024-02-14T07:03:56;5.00;99.90
36442;DHT22;73131;50.820;16.274;2024-02-14T07:07:04;5.00;99.90
36442;DHT22;73131;50.820;16.274;2024-02-14T07:10:05;4.80;99.90
36442;DHT22;73131;50.820;16.274;2024-02-14T07:13:09;4.70;99.90
36442;DHT22;73131;50.820;16.274;2024-02-14T07:16:12;4.80;99.90
36442;DHT22;73131;50.820;16.274;2024-02-14T07:19:20;4.80;99.90
36442;DHT22;73131;50.820;16.274;2024-02-14T07:22:24;4.70;99.90
36442;DHT22;73131;50.820;16.274;2024-02-14T07:25:27;4.80;99.90
36442;DHT22;73131;50.820;16.274;2024-02-14T07:28:28;4.80;99.90
36442;DHT22;73131;50.820;16.274;2024-02-14T07:31:29;4.70;99.90
36442;DHT22;73131;50.820;16.274;2024-02-14T07:34:38;4.80;99.90
36442;DHT22;73131;50.820;16.274;2024-02-14T07:37:45;4.90;99.90
36442;DHT22;73131;50.820;16.274;2024-02-14T07:40:47;5.00;99.90
36442;DHT22;73131;50.820;16.274;2024-02-14T07:43:50;5.00;99.90
36442;DHT22;73131;50.820;16.274;2024-02-14T07:46:51;5.20;99.90
36442;DHT22;73131;50.820;16.274;2024-02-14T07:49:53;5.40;99.90
36442;DHT22;73131;50.820;16.274;2024-02-14T07:52:58;5.70;99.90
36442;DHT22;73131;50.820;16.274;2024-02-14T07:55:59;6.00;99.90
36442;DHT22;73131;50.820;16.274;2024-02-14T07:59:00;6.30;99.90
36442;DHT22;73131;50.820;16.274;2024-02-14T08:02:01;6.40;99.90
36442;DHT22;73131;50.820;16.274;2024-02-14T08:05:03;6.60;99.90
36442;DHT22;73131;50.820;16.274;2024-02-14T08:08:09;6.80;99.90
36442;DHT22;73131;50.820;16.274;2024-02-14T08:11:13;7.00;99.90
36442;DHT22;73131;50.820;16.274;2024-02-14T08:14:16;7.40;99.90
36442;DHT22;73131;50.820;16.274;2024-02-14T08:17:19;7.70;99.90
36442;DHT22;73131;50.820;16.274;2024-02-14T08:20:20;8.30;99.90
36442;DHT22;73131;50.820;16.274;2024-02-14T08:23:24;9.20;99.90
36442;DHT22;73131;50.820;16.274;2024-02-14T08:26:27;11.10;99.90
36442;DHT22;73131;50.820;16.274;2024-02-14T08:29:32;13.50;99.90
36442;DHT22;73131;50.820;16.274;2024-02-14T08:32:34;15.20;98.60
36442;DHT22;73131;50.820;16.274;2024-02-14T08:35:35;15.50;96.70
36442;DHT22;73131;50.820;16.274;2024-02-14T08:38:36;16.70;93.80
36442;DHT22;73131;50.820;16.274;2024-02-14T08:41:43;16.80;91.40
36442;DHT22;73131;50.820;16.274;2024-02-14T08:44:47;17.30;88.60
36442;DHT22;73131;50.820;16.274;2024-02-14T08:47:51;17.10;87.10
36442;DHT22;73131;50.820;16.274;2024-02-14T08:50:57;17.40;86.00
36442;DHT22;73131;50.820;16.274;2024-02-14T08:54:01;18.20;83.40
36442;DHT22;73131;50.820;16.274;2024-02-14T08:57:05;18.70;80.20
36442;DHT22;73131;50.820;16.274;2024-02-14T09:00:07;19.20;77.30
36442;DHT22;73131;50.820;16.274;2024-02-14T09:03:08;20.20;73.90
36442;DHT22;73131;50.820;16.274;2024-02-14T09:06:13;21.40;69.50
36442;DHT22;73131;50.820;16.274;2024-02-14T09:09:16;21.20;66.40
36442;DHT22;73131;50.820;16.274;2024-02-14T09:12:32;21.20;66.10
36442;DHT22;73131;50.820;16.274;2024-02-14T09:15:43;21.80;64.00
36442;DHT22;73131;50.820;16.274;2024-02-14T09:18:45;22.50;61.50
36442;DHT22;73131;50.820;16.274;2024-02-14T09:21:48;22.50;59.60
36442;DHT22;73131;50.820;16.274;2024-02-14T09:25:17;23.00;58.60
36442;DHT22;73131;50.820;16.274;2024-02-14T09:28:23;23.00;57.70
36442;DHT22;73131;50.820;16.274;2024-02-14T09:31:23;21.80;58.40
36442;DHT22;73131;50.820;16.274;2024-02-14T09:34:27;21.50;59.30
36442;DHT22;73131;50.820;16.274;2024-02-14T09:37:32;20.50;60.80
36442;DHT22;73131;50.820;16.274;2024-02-14T09:40:33;20.40;60.70
36442;DHT22;73131;50.820;16.274;2024-02-14T09:43:39;19.80;61.70
36442;DHT22;73131;50.820;16.274;2024-02-14T09:46:42;19.70;61.90
36442;DHT22;73131;50.820;16.274;2024-02-14T09:49:46;19.90;61.40
36442;DHT22;73131;50.820;16.274;2024-02-14T09:52:48;18.90;63.10
36442;DHT22;73131;50.820;16.274;2024-02-14T09:55:55;19.00;64.30
36442;DHT22;73131;50.820;16.274;2024-02-14T09:58:58;19.60;62.60
36442;DHT22;73131;50.820;16.274;2024-02-14T10:02:01;19.50;62.50
36442;DHT22;73131;50.820;16.274;2024-02-14T10:05:02;19.50;62.80
36442;DHT22;73131;50.820;16.274;2024-02-14T10:08:03;19.30;62.70
36442;DHT22;73131;50.820;16.274;2024-02-14T10:11:04;18.80;63.00
36442;DHT22;73131;50.820;16.274;2024-02-14T10:14:08;17.80;65.90
36442;DHT22;73131;50.820;16.274;2024-02-14T10:17:21;18.30;65.40
36442;DHT22;73131;50.820;16.274;2024-02-14T10:20:24;18.80;64.10
36442;DHT22;73131;50.820;16.274;2024-02-14T10:23:30;19.90;62.40
36442;DHT22;73131;50.820;16.274;2024-02-14T10:26:33;19.50;61.40
36442;DHT22;73131;50.820;16.274;2024-02-14T10:29:34;18.90;63.40
36442;DHT22;73131;50.820;16.274;2024-02-14T10:32:39;20.40;62.20
36442;DHT22;73131;50.820;16.274;2024-02-14T10:35:52;21.10;60.40
36442;DHT22;73131;50.820;16.274;2024-02-14T10:38:57;21.80;58.90
36442;DHT22;73131;50.820;16.274;2024-02-14T10:42:02;21.60;59.20
36442;DHT22;73131;50.820;16.274;2024-02-14T10:45:07;19.80;60.50
36442;DHT22;73131;50.820;16.274;2024-02-14T10:48:12;18.10;63.40
36442;DHT22;73131;50.820;16.274;2024-02-14T10:51:17;16.20;65.90
36442;DHT22;73131;50.820;16.274;2024-02-14T10:54:23;14.90;69.00
36442;DHT22;73131;50.820;16.274;2024-02-14T10:57:29;13.80;72.50
36442;DHT22;73131;50.820;16.274;2024-02-14T11:00:31;12.80;75.60
36442;DHT22;73131;50.820;16.274;2024-02-14T11:03:35;12.20;80.00
36442;DHT22;73131;50.820;16.274;2024-02-14T11:06:52;11.70;82.50
36442;DHT22;73131;50.820;16.274;2024-02-14T11:10:07;11.20;86.90
36442;DHT22;73131;50.820;16.274;2024-02-14T11:13:14;11.10;90.00
36442;DHT22;73131;50.820;16.274;2024-02-14T11:16:15;11.20;90.50
36442;DHT22;73131;50.820;16.274;2024-02-14T11:19:16;11.10;91.30
36442;DHT22;73131;50.820;16.274;2024-02-14T11:22:21;10.90;92.00
36442;DHT22;73131;50.820;16.274;2024-02-14T11:25:43;10.60;93.50
36442;DHT22;73131;50.820;16.274;2024-02-14T11:28:48;10.40;94.50
36442;DHT22;73131;50.820;16.274;2024-02-14T11:32:02;10.10;95.70
36442;DHT22;73131;50.820;16.274;2024-02-14T11:35:07;10.00;97.30
36442;DHT22;73131;50.820;16.274;2024-02-14T11:38:11;10.10;98.40
36442;DHT22;73131;50.820;16.274;2024-02-14T11:41:12;10.10;99.00
36442;DHT22;73131;50.820;16.274;2024-02-14T11:44:16;10.20;99.70
36442;DHT22;73131;50.820;16.274;2024-02-14T11:47:17;10.20;99.90
36442;DHT22;73131;50.820;16.274;2024-02-14T11:50:21;10.20;99.90
36442;DHT22;73131;50.820;16.274;2024-02-14T11:53:27;10.10;99.90
36442;DHT22;73131;50.820;16.274;2024-02-14T11:56:35;9.90;99.90
36442;DHT22;73131;50.820;16.274;2024-02-14T11:59:37;9.90;99.90
36442;DHT22;73131;50.820;16.274;2024-02-14T12:02:38;9.90;99.90
36442;DHT22;73131;50.820;16.274;2024-02-14T12:05:40;9.80;99.90
36442;DHT22;73131;50.820;16.274;2024-02-14T12:08:42;9.80;99.90
36442;DHT22;73131;50.820;16.274;2024-02-14T12:11:46;9.60;99.90
36442;DHT22;73131;50.820;16.274;2024-02-14T12:14:50;9.50;99.90
36442;DHT22;73131;50.820;16.274;2024-02-14T12:17:54;9.40;99.90
36442;DHT22;73131;50.820;16.274;2024-02-14T12:21:07;9.50;99.90
36442;DHT22;73131;50.820;16.274;2024-02-14T12:24:14;9.50;99.90
36442;DHT22;73131;50.820;16.274;2024-02-14T12:27:20;9.60;99.90
36442;DHT22;73131;50.820;16.274;2024-02-14T12:30:22;9.60;99.90
36442;DHT22;73131;50.820;16.274;2024-02-14T12:33:26;9.60;99.90
36442;DHT22;73131;50.820;16.274;2024-02-14T12:36:31;9.70;99.90
36442;DHT22;73131;50.820;16.274;2024-02-14T12:39:35;9.60;99.90
36442;DHT22;73131;50.820;16.274;2024-02-14T12:42:36;9.50;99.90
36442;DHT22;73131;50.820;16.274;2024-02-14T12:45:38;9.40;99.90
36442;DHT22;73131;50.820;16.274;2024-02-14T12:48:39;9.40;99.90
36442;DHT22;73131;50.820;16.274;2024-02-14T12:51:40;9.40;99.90
36442;DHT22;73131;50.820;16.274;2024-02-14T12:54:44;9.30;99.90
36442;DHT22;73131;50.820;16.274;2024-02-14T12:57:47;9.30;99.90
36442;DHT22;73131;50.820;16.274;2024-02-14T13:00:50;9.30;99.90
36442;DHT22;73131;50.820;16.274;2024-02-14T13:03:54;9.30;99.90
36442;DHT22;73131;50.820;16.274;2024-02-14T13:06:55;9.30;99.90
36442;DHT22;73131;50.820;16.274;2024-02-14T13:09:56;9.20;99.90
36442;DHT22;73131;50.820;16.274;2024-02-14T13:13:05;9.10;99.90
36442;DHT22;73131;50.820;16.274;2024-02-14T13:16:08;9.10;99.90
36442;DHT22;73131;50.820;16.274;2024-02-14T13:19:09;9.20;99.90
36442;DHT22;73131;50.820;16.274;2024-02-14T13:22:12;9.30;99.90
36442;DHT22;73131;50.820;16.274;2024-02-14T13:25:17;9.30;99.90
36442;DHT22;73131;50.820;16.274;2024-02-14T13:28:18;9.20;99.90
36442;DHT22;73131;50.820;16.274;2024-02-14T13:31:19;9.40;99.90
36442;DHT22;73131;50.820;16.274;2024-02-14T13:34:23;9.50;99.90
36442;DHT22;73131;50.820;16.274;2024-02-14T13:37:24;9.40;99.90
36442;DHT22;73131;50.820;16.274;2024-02-14T13:40:25;9.60;99.90
36442;DHT22;73131;50.820;16.274;2024-02-14T13:43:27;10.00;99.90
36442;DHT22;73131;50.820;16.274;2024-02-14T13:46:30;10.00;99.90
36442;DHT22;73131;50.820;16.274;2024-02-14T13:49:35;9.90;99.90
36442;DHT22;73131;50.820;16.274;2024-02-14T13:52:38;9.70;99.90
36442;DHT22;73131;50.820;16.274;2024-02-14T13:55:42;9.60;99.90
36442;DHT22;73131;50.820;16.274;2024-02-14T13:58:46;9.50;99.90
36442;DHT22;73131;50.820;16.274;2024-02-14T14:01:52;9.40;99.90
36442;DHT22;73131;50.820;16.274;2024-02-14T14:04:53;9.30;99.90
36442;DHT22;73131;50.820;16.274;2024-02-14T14:07:59;9.20;99.90
36442;DHT22;73131;50.820;16.274;2024-02-14T14:11:04;9.10;99.90
36442;DHT22;73131;50.820;16.274;2024-02-14T14:14:06;9.00;99.90
36442;DHT22;73131;50.820;16.274;2024-02-14T14:17:06;9.10;99.90
36442;DHT22;73131;50.820;16.274;2024-02-14T14:20:10;9.20;99.90
36442;DHT22;73131;50.820;16.274;2024-02-14T14:23:11;9.30;99.90
36442;DHT22;73131;50.820;16.274;2024-02-14T14:26:13;9.30;99.90
36442;DHT22;73131;50.820;16.274;2024-02-14T14:29:16;9.10;99.90
36442;DHT22;73131;50.820;16.274;2024-02-14T14:32:20;8.90;99.90
36442;DHT22;73131;50.820;16.274;2024-02-14T14:35:24;8.70;99.90
36442;DHT22;73131;50.820;16.274;2024-02-14T14:38:25;8.60;99.90
36442;DHT22;73131;50.820;16.274;2024-02-14T14:41:27;8.40;99.90
36442;DHT22;73131;50.820;16.274;2024-02-14T14:44:29;8.30;99.90
36442;DHT22;73131;50.820;16.274;2024-02-14T14:47:31;8.30;99.90
36442;DHT22;73131;50.820;16.274;2024-02-14T14:50:35;8.30;99.90
36442;DHT22;73131;50.820;16.274;2024-02-14T14:53:41;8.20;99.90
36442;DHT22;73131;50.820;16.274;2024-02-14T14:56:53;8.20;99.90
36442;DHT22;73131;50.820;16.274;2024-02-14T14:59:54;8.20;99.90
36442;DHT22;73131;50.820;16.274;2024-02-14T15:02:59;8.20;99.90
36442;DHT22;73131;50.820;16.274;2024-02-14T15:06:02;8.40;99.90
36442;DHT22;73131;50.820;16.274;2024-02-14T15:09:03;8.00;99.90
36442;DHT22;73131;50.820;16.274;2024-02-14T15:12:04;8.00;99.90
36442;DHT22;73131;50.820;16.274;2024-02-14T15:15:06;7.90;99.90
36442;DHT22;73131;50.820;16.274;2024-02-14T15:18:07;7.90;99.90
36442;DHT22;73131;50.820;16.274;2024-02-14T15:21:08;7.90;99.90
36442;DHT22;73131;50.820;16.274;2024-02-14T15:24:09;7.90;99.90
36442;DHT22;73131;50.820;16.274;2024-02-14T15:27:11;8.00;99.90
36442;DHT22;73131;50.820;16.274;2024-02-14T15:30:24;8.30;99.90
36442;DHT22;73131;50.820;16.274;2024-02-14T15:33:45;8.30;99.90
36442;DHT22;73131;50.820;16.274;2024-02-14T15:36:49;8.40;99.90
36442;DHT22;73131;50.820;16.274;2024-02-14T15:39:52;8.50;99.90
36442;DHT22;73131;50.820;16.274;2024-02-14T15:42:53;8.60;99.90
36442;DHT22;73131;50.820;16.274;2024-02-14T15:45:57;8.60;99.90
36442;DHT22;73131;50.820;16.274;2024-02-14T15:49:01;8.60;99.90
36442;DHT22;73131;50.820;16.274;2024-02-14T15:52:03;8.40;99.90
36442;DHT22;73131;50.820;16.274;2024-02-14T15:55:08;8.20;99.90
36442;DHT22;73131;50.820;16.274;2024-02-14T15:58:09;8.10;99.90
36442;DHT22;73131;50.820;16.274;2024-02-14T16:01:10;8.00;99.90
36442;DHT22;73131;50.820;16.274;2024-02-14T16:04:17;7.90;99.90
36442;DHT22;73131;50.820;16.274;2024-02-14T16:07:18;7.70;99.90
36442;DHT22;73131;50.820;16.274;2024-02-14T16:10:21;7.70;99.90
36442;DHT22;73131;50.820;16.274;2024-02-14T16:13:25;7.60;99.90
36442;DHT22;73131;50.820;16.274;2024-02-14T16:16:28;7.70;99.90
36442;DHT22;73131;50.820;16.274;2024-02-14T16:19:32;8.00;99.90
36442;DHT22;73131;50.820;16.274;2024-02-14T16:22:38;8.00;99.90
36442;DHT22;73131;50.820;16.274;2024-02-14T16:25:40;8.10;99.90
36442;DHT22;73131;50.820;16.274;2024-02-14T16:28:42;8.00;99.90
36442;DHT22;73131;50.820;16.274;2024-02-14T16:31:43;8.00;99.90
36442;DHT22;73131;50.820;16.274;2024-02-14T16:34:44;8.00;99.90
36442;DHT22;73131;50.820;16.274;2024-02-14T16:37:54;8.00;99.90
36442;DHT22;73131;50.820;16.274;2024-02-14T16:41:03;7.90;99.90
36442;DHT22;73131;50.820;16.274;2024-02-14T16:44:06;7.90;99.90
36442;DHT22;73131;50.820;16.274;2024-02-14T16:47:19;7.90;99.90
36442;DHT22;73131;50.820;16.274;2024-02-14T16:50:25;7.90;99.90
36442;DHT22;73131;50.820;16.274;2024-02-14T16:53:29;7.80;99.90
36442;DHT22;73131;50.820;16.274;2024-02-14T16:56:32;7.80;99.90
36442;DHT22;73131;50.820;16.274;2024-02-14T16:59:36;7.80;99.90
36442;DHT22;73131;50.820;16.274;2024-02-14T17:02:38;7.80;99.90
36442;DHT22;73131;50.820;16.274;2024-02-14T17:05:42;7.70;99.90
36442;DHT22;73131;50.820;16.274;2024-02-14T17:08:43;7.70;99.90
36442;DHT22;73131;50.820;16.274;2024-02-14T17:11:44;7.70;99.90
36442;DHT22;73131;50.820;16.274;2024-02-14T17:14:47;7.70;99.90
36442;DHT22;73131;50.820;16.274;2024-02-14T17:17:51;7.70;99.90
36442;DHT22;73131;50.820;16.274;2024-02-14T17:20:52;7.80;99.90
36442;DHT22;73131;50.820;16.274;2024-02-14T17:23:58;7.80;99.90
36442;DHT22;73131;50.820;16.274;2024-02-14T17:27:04;7.80;99.90
36442;DHT22;73131;50.820;16.274;2024-02-14T17:30:11;7.90;99.90
36442;DHT22;73131;50.820;16.274;2024-02-14T17:33:12;7.80;99.90
36442;DHT22;73131;50.820;16.274;2024-02-14T17:36:15;7.80;99.90
36442;DHT22;73131;50.820;16.274;2024-02-14T17:39:19;7.80;99.90
36442;DHT22;73131;50.820;16.274;2024-02-14T17:42:30;7.80;99.90
36442;DHT22;73131;50.820;16.274;2024-02-14T17:45:34;7.80;99.90
36442;DHT22;73131;50.820;16.274;2024-02-14T17:48:43;7.70;99.90
36442;DHT22;73131;50.820;16.274;2024-02-14T17:51:47;7.70;99.90
36442;DHT22;73131;50.820;16.274;2024-02-14T17:54:56;7.70;99.90
36442;DHT22;73131;50.820;16.274;2024-02-14T17:58:00;7.70;99.90
36442;DHT22;73131;50.820;16.274;2024-02-14T18:01:04;7.70;99.90
36442;DHT22;73131;50.820;16.274;2024-02-14T18:04:10;7.70;99.90
36442;DHT22;73131;50.820;16.274;2024-02-14T18:07:11;7.70;99.90
36442;DHT22;73131;50.820;16.274;2024-02-14T18:10:12;7.70;99.90
36442;DHT22;73131;50.820;16.274;2024-02-14T18:13:13;7.70;99.90
36442;DHT22;73131;50.820;16.274;2024-02-14T18:16:15;7.80;99.90
36442;DHT22;73131;50.820;16.274;2024-02-14T18:19:16;7.80;99.90
36442;DHT22;73131;50.820;16.274;2024-02-14T18:22:19;7.80;99.90
36442;DHT22;73131;50.820;16.274;2024-02-14T18:25:22;7.80;99.90
36442;DHT22;73131;50.820;16.274;2024-02-14T18:28:25;7.80;99.90
36442;DHT22;73131;50.820;16.274;2024-02-14T18:31:27;7.80;99.90
36442;DHT22;73131;50.820;16.274;2024-02-14T18:34:28;7.80;99.90
36442;DHT22;73131;50.820;16.274;2024-02-14T18:37:33;7.80;99.90
36442;DHT22;73131;50.820;16.274;2024-02-14T18:40:36;7.90;99.90
36442;DHT22;73131;50.820;16.274;2024-02-14T18:43:41;7.90;99.90
36442;DHT22;73131;50.820;16.274;2024-02-14T18:46:45;7.90;99.90
36442;DHT22;73131;50.820;16.274;2024-02-14T18:49:49;7.90;99.90
36442;DHT22;73131;50.820;16.274;2024-02-14T18:52:53;7.90;99.90
36442;DHT22;73131;50.820;16.274;2024-02-14T18:55:55;9.70;99.90
36442;DHT22;73131;50.820;16.274;2024-02-14T18:59:00;7.80;99.90
36442;DHT22;73131;50.820;16.274;2024-02-14T19:02:02;7.70;99.90
36442;DHT22;73131;50.820;16.274;2024-02-14T19:05:04;7.70;99.90
36442;DHT22;73131;50.820;16.274;2024-02-14T19:08:09;7.60;99.90
36442;DHT22;73131;50.820;16.274;2024-02-14T19:11:10;7.60;99.90
36442;DHT22;73131;50.820;16.274;2024-02-14T19:14:12;7.50;99.90